Terminal Aerodrome Forecast
Issued by NWS Charleston, WV

Current Version | Previous Version | Graphics & Text | Print | Product List | Glossary On
Versions: 1 2 3 4 5 6 7 8 9 10 11 12 13 14 15 16 17 18 19 20 21 22 23 24 25 26 27
932
FTUS41 KRLX 211140 CCA
TAFBKW
TAF COR
KBKW 211140Z 2112/2212 28005KT 6SM BR OVC015
     FM211300 32006KT 5SM BR OVC010
     FM211330 32007KT 3SM BR OVC007
     FM211600 31004KT P6SM OVC010
     FM212200 32006KT P6SM BKN035=

USA.gov is the U.S. government's official web portal to all federal, state and local government web resources and services.